createdAt,value
2019-02-19T00:02:11.962Z,52.20
2019-02-19T00:04:40.933Z,50.77
2019-02-19T00:07:09.779Z,48.68
2019-02-19T00:09:39.288Z,54.77
2019-02-19T00:12:08.635Z,55.45
2019-02-19T00:14:37.632Z,66.42
2019-02-19T00:17:06.600Z,60.88
2019-02-19T00:19:36.865Z,56.13
2019-02-19T00:22:06.449Z,57.48
2019-02-19T00:24:35.775Z,57.98
2019-02-19T00:27:06.022Z,56.80
2019-02-19T00:29:34.996Z,58.68
2019-02-19T00:32:04.000Z,51.98
2019-02-19T00:34:32.964Z,56.23
2019-02-19T00:37:01.904Z,43.80
2019-02-19T00:39:31.028Z,46.15
2019-02-19T00:42:00.353Z,41.40
2019-02-19T00:44:29.652Z,49.90
2019-02-19T00:46:58.968Z,45.12
2019-02-19T00:49:27.879Z,49.63
2019-02-19T00:51:56.897Z,45.52
2019-02-19T00:54:26.168Z,44.42
2019-02-19T00:56:55.264Z,44.77
2019-02-19T00:59:24.512Z,44.23
2019-02-19T01:01:53.732Z,44.30
2019-02-19T01:04:22.780Z,41.45
2019-02-19T01:06:51.704Z,38.48
2019-02-19T01:09:20.747Z,39.50
2019-02-19T01:11:49.689Z,43.33
2019-02-19T01:14:18.631Z,41.92
2019-02-19T01:16:47.660Z,45.40
2019-02-19T01:19:16.650Z,43.28
2019-02-19T01:21:45.773Z,41.95
2019-02-19T01:24:14.710Z,43.52
2019-02-19T01:26:43.671Z,43.08
2019-02-19T01:29:12.918Z,45.70
2019-02-19T01:31:42.189Z,44.08
2019-02-19T01:34:11.376Z,45.90
2019-02-19T01:36:40.503Z,41.88
2019-02-19T01:39:09.692Z,45.65
2019-02-19T01:41:38.589Z,46.68
2019-02-19T01:44:07.576Z,44.30
2019-02-19T01:46:36.512Z,41.30
2019-02-19T01:49:05.548Z,46.98
2019-02-19T01:51:34.562Z,42.55
2019-02-19T01:54:03.579Z,44.30
2019-02-19T01:56:32.496Z,41.68
2019-02-19T01:59:01.393Z,42.05
2019-02-19T02:01:30.341Z,44.50
2019-02-19T02:03:59.353Z,45.45
2019-02-19T02:06:28.283Z,42.62
2019-02-19T02:08:57.203Z,42.20
2019-02-19T02:11:26.247Z,43.53
2019-02-19T02:13:55.191Z,41.20
2019-02-19T02:16:24.224Z,43.83
2019-02-19T02:18:53.151Z,42.30
2019-02-19T02:21:22.607Z,44.88
2019-02-19T02:23:51.932Z,43.30
2019-02-19T02:26:20.994Z,45.58
2019-02-19T02:28:50.020Z,45.50
2019-02-19T02:31:18.976Z,45.67
2019-02-19T02:33:48.278Z,44.23
2019-02-19T02:36:17.204Z,43.25
2019-02-19T02:38:48.198Z,47.90
2019-02-19T02:41:17.517Z,46.80
2019-02-19T02:43:46.702Z,47.00
2019-02-19T02:46:30.827Z,48.92
2019-02-19T02:49:00.224Z,46.18
2019-02-19T02:51:29.086Z,44.03
2019-02-19T02:53:58.295Z,45.90
2019-02-19T02:56:27.158Z,45.98
2019-02-19T02:58:56.093Z,45.03
2019-02-19T03:01:25.140Z,46.25
2019-02-19T03:03:54.097Z,48.17
2019-02-19T03:06:28.707Z,44.53
2019-02-19T03:08:57.555Z,44.65
2019-02-19T03:11:26.484Z,44.95
2019-02-19T03:13:55.372Z,47.17
2019-02-19T03:16:24.685Z,52.73
2019-02-19T03:18:53.816Z,56.45
2019-02-19T03:21:22.775Z,42.75
2019-02-19T03:23:51.633Z,43.92
2019-02-19T03:26:20.918Z,50.55
2019-02-19T03:28:49.955Z,53.35
2019-02-19T03:31:19.106Z,51.77
2019-02-19T03:33:47.958Z,47.90
2019-02-19T03:36:16.986Z,45.57
2019-02-19T03:38:45.875Z,49.50
2019-02-19T03:41:14.810Z,43.33
2019-02-19T03:43:43.712Z,41.25
2019-02-19T03:46:12.715Z,40.73
2019-02-19T03:48:41.759Z,44.45
2019-02-19T03:51:14.360Z,44.88
2019-02-19T03:53:43.275Z,42.80
2019-02-19T03:56:12.305Z,43.35
2019-02-19T03:58:41.619Z,44.15
2019-02-19T04:01:10.624Z,40.98
2019-02-19T04:03:39.628Z,44.53
2019-02-19T04:06:08.688Z,43.80
2019-02-19T04:08:38.513Z,46.07
2019-02-19T04:11:11.004Z,53.78
2019-02-19T04:13:39.920Z,45.20
2019-02-19T04:16:08.848Z,41.88
2019-02-19T04:18:37.812Z,46.93
2019-02-19T04:21:06.860Z,49.63
2019-02-19T04:23:35.781Z,49.23
2019-02-19T04:26:05.029Z,54.27
2019-02-19T04:28:34.245Z,49.90
2019-02-19T04:31:03.208Z,49.70
2019-02-19T04:33:32.141Z,48.93
2019-02-19T04:36:01.209Z,48.30
2019-02-19T04:38:30.244Z,47.45
2019-02-19T04:40:59.206Z,46.42
2019-02-19T04:43:28.611Z,43.65
2019-02-19T04:45:57.458Z,40.00
2019-02-19T04:48:26.678Z,42.13
2019-02-19T04:50:55.704Z,42.23
2019-02-19T04:53:24.660Z,40.12
2019-02-19T04:55:53.607Z,39.18
2019-02-19T04:58:22.648Z,41.55
2019-02-19T05:00:51.524Z,45.23
2019-02-19T05:03:20.465Z,47.00
2019-02-19T05:05:49.698Z,45.15
2019-02-19T05:08:18.684Z,40.75
2019-02-19T05:10:47.890Z,40.05
2019-02-19T05:13:16.917Z,44.38
2019-02-19T05:15:45.946Z,43.87
2019-02-19T05:18:14.884Z,40.92
2019-02-19T05:20:43.763Z,43.83
2019-02-19T05:23:14.809Z,42.78
2019-02-19T05:25:43.738Z,42.23
2019-02-19T05:28:12.696Z,40.52
2019-02-19T05:30:43.095Z,39.80
2019-02-19T05:33:12.409Z,43.17
2019-02-19T05:35:41.670Z,41.05
2019-02-19T05:38:10.606Z,41.42
2019-02-19T05:40:39.631Z,40.75
2019-02-19T05:43:08.597Z,48.50
2019-02-19T05:45:37.555Z,47.98
2019-02-19T05:48:07.841Z,47.80
2019-02-19T05:50:37.084Z,42.73
2019-02-19T05:53:06.644Z,44.93
2019-02-19T05:55:35.532Z,43.85
2019-02-19T05:58:04.503Z,42.70
2019-02-19T06:00:33.635Z,47.00
2019-02-19T06:03:02.560Z,44.73
2019-02-19T06:05:31.528Z,44.38
2019-02-19T06:08:00.541Z,43.42
2019-02-19T06:10:29.404Z,43.35
2019-02-19T06:12:58.604Z,47.27
2019-02-19T06:15:27.457Z,43.17
2019-02-19T06:17:56.375Z,44.98
2019-02-19T06:20:25.256Z,44.42
2019-02-19T06:22:54.540Z,48.60
2019-02-19T06:25:23.555Z,45.87
2019-02-19T06:27:52.553Z,50.55
2019-02-19T06:30:21.436Z,54.93
2019-02-19T06:32:50.446Z,53.87
2019-02-19T06:35:19.349Z,50.43
2019-02-19T06:37:48.344Z,47.30
2019-02-19T06:40:35.265Z,49.08
2019-02-19T06:43:04.232Z,49.42
2019-02-19T06:45:33.179Z,47.60
2019-02-19T06:48:02.128Z,49.23
2019-02-19T06:50:31.415Z,47.60
2019-02-19T06:53:00.271Z,45.63
2019-02-19T06:55:29.220Z,45.43
2019-02-19T06:57:58.344Z,48.57
2019-02-19T07:00:27.352Z,69.37
2019-02-19T07:03:05.104Z,85.77
2019-02-19T07:05:34.147Z,79.50
2019-02-19T07:08:03.181Z,77.08
2019-02-19T07:10:32.155Z,61.45
2019-02-19T07:13:01.116Z,58.50
2019-02-19T07:15:30.183Z,54.18
2019-02-19T07:17:59.141Z,54.60
2019-02-19T07:20:28.158Z,55.90
2019-02-19T07:22:57.359Z,51.48
2019-02-19T07:25:26.309Z,53.70
2019-02-19T07:27:55.374Z,53.90
2019-02-19T07:30:24.364Z,65.20
2019-02-19T07:32:53.359Z,49.10
2019-02-19T07:35:22.332Z,46.95
2019-02-19T07:37:51.333Z,45.00
2019-02-19T07:40:20.303Z,44.00
2019-02-19T07:42:49.776Z,43.85
2019-02-19T07:45:18.829Z,42.58
2019-02-19T07:47:47.769Z,39.73
2019-02-19T07:50:16.728Z,40.38
2019-02-19T07:52:45.785Z,39.00
2019-02-19T07:55:14.827Z,38.90
2019-02-19T07:57:43.881Z,38.27
2019-02-19T08:00:13.226Z,38.55
2019-02-19T08:02:42.288Z,36.35
2019-02-19T08:05:11.437Z,38.45
2019-02-19T08:07:40.683Z,34.08
2019-02-19T08:10:09.752Z,35.90
2019-02-19T08:12:38.720Z,35.98
2019-02-19T08:15:08.214Z,33.83
2019-02-19T08:17:37.174Z,36.30
2019-02-19T08:20:13.447Z,33.53
2019-02-19T08:22:37.052Z,32.85
2019-02-19T08:25:06.088Z,31.10
2019-02-19T08:27:35.014Z,29.82
2019-02-19T08:30:04.135Z,29.57
2019-02-19T08:32:33.392Z,30.00
2019-02-19T08:35:02.313Z,29.52
2019-02-19T08:37:32.825Z,31.07
2019-02-19T08:40:01.705Z,28.95
2019-02-19T08:42:30.757Z,31.57
2019-02-19T08:45:00.115Z,31.57
2019-02-19T08:47:29.318Z,29.65
2019-02-19T08:49:58.260Z,30.50
2019-02-19T08:52:27.136Z,29.82
2019-02-19T08:54:56.080Z,27.33
2019-02-19T08:57:25.057Z,29.15
2019-02-19T08:59:54.321Z,31.85
2019-02-19T09:02:23.268Z,27.50
2019-02-19T09:04:52.645Z,28.73
2019-02-19T09:07:21.623Z,29.40
2019-02-19T09:09:50.485Z,30.23
2019-02-19T09:12:19.382Z,28.40
2019-02-19T09:14:49.412Z,27.27
2019-02-19T09:17:18.514Z,28.67
2019-02-19T09:19:48.453Z,28.62
2019-02-19T09:22:17.370Z,28.95
2019-02-19T09:24:46.256Z,31.45
2019-02-19T09:27:15.462Z,33.63
2019-02-19T09:29:44.848Z,30.57
2019-02-19T09:32:13.988Z,30.73
2019-02-19T09:34:42.958Z,25.75
2019-02-19T09:37:11.936Z,28.20
2019-02-19T09:39:40.882Z,27.67
2019-02-19T09:42:09.794Z,26.70
2019-02-19T09:44:38.742Z,26.65
2019-02-19T09:47:08.042Z,26.30
2019-02-19T09:49:36.948Z,28.67
2019-02-19T09:52:06.126Z,26.73
2019-02-19T09:54:35.120Z,26.10
2019-02-19T09:57:04.328Z,27.37
2019-02-19T09:59:33.256Z,24.55
2019-02-19T10:02:02.153Z,25.55
2019-02-19T10:04:31.671Z,23.38
2019-02-19T10:07:00.592Z,23.47
2019-02-19T10:09:29.568Z,23.38
2019-02-19T10:11:58.420Z,23.20
2019-02-19T10:14:27.372Z,23.62
2019-02-19T10:16:56.304Z,23.75
2019-02-19T10:19:26.089Z,25.57
2019-02-19T10:21:55.232Z,24.70
2019-02-19T10:24:24.072Z,23.83
2019-02-19T10:26:52.946Z,25.43
2019-02-19T10:29:21.885Z,21.52
2019-02-19T10:31:50.801Z,22.98
2019-02-19T10:34:19.684Z,25.92
2019-02-19T10:36:48.540Z,21.23
2019-02-19T10:39:17.455Z,22.50
2019-02-19T10:41:46.352Z,24.05
2019-02-19T10:44:15.269Z,22.75
2019-02-19T10:46:44.448Z,22.42
2019-02-19T10:49:13.373Z,23.87
2019-02-19T10:51:42.417Z,23.22
2019-02-19T10:54:11.276Z,20.40
2019-02-19T10:56:40.192Z,24.23
2019-02-19T10:59:09.064Z,19.80
2019-02-19T11:01:38.066Z,21.20
2019-02-19T11:04:07.064Z,23.32
2019-02-19T11:06:35.997Z,25.57
2019-02-19T11:09:06.393Z,24.40
2019-02-19T11:11:35.382Z,22.55
2019-02-19T11:14:04.712Z,25.12
2019-02-19T11:16:33.954Z,23.55
2019-02-19T11:19:02.815Z,21.75
2019-02-19T11:21:31.730Z,23.85
2019-02-19T11:24:00.772Z,22.33
2019-02-19T11:26:29.649Z,21.10
2019-02-19T11:28:58.529Z,21.93
2019-02-19T11:31:27.720Z,21.02
2019-02-19T11:33:56.720Z,22.75
2019-02-19T11:36:25.736Z,22.55
2019-02-19T11:38:54.714Z,21.95
2019-02-19T11:41:23.750Z,22.87
2019-02-19T11:43:52.607Z,23.65
2019-02-19T11:46:21.587Z,22.23
2019-02-19T11:48:50.595Z,26.97
2019-02-19T11:51:19.605Z,22.48
2019-02-19T11:53:48.475Z,21.37
2019-02-19T11:56:17.340Z,20.68
2019-02-19T11:58:46.284Z,23.75
2019-02-19T12:01:15.340Z,20.10
2019-02-19T12:03:44.621Z,19.67
2019-02-19T12:06:13.663Z,22.50
2019-02-19T12:08:42.582Z,20.37
2019-02-19T12:11:11.508Z,22.60
2019-02-19T12:13:40.440Z,24.47
2019-02-19T12:16:09.364Z,20.82
2019-02-19T12:18:45.905Z,21.85
2019-02-19T12:21:10.599Z,21.62
2019-02-19T12:23:39.747Z,20.52
2019-02-19T12:26:08.826Z,19.50
2019-02-19T12:28:38.168Z,20.82
2019-02-19T12:31:07.222Z,18.30
2019-02-19T12:33:36.428Z,16.55
2019-02-19T12:36:05.351Z,18.12
2019-02-19T12:38:34.381Z,22.22
2019-02-19T12:41:03.408Z,18.67
2019-02-19T12:43:32.343Z,20.20
2019-02-19T12:46:01.181Z,18.57
2019-02-19T12:48:30.392Z,16.30
2019-02-19T12:50:59.336Z,20.48
2019-02-19T12:53:28.262Z,18.15
2019-02-19T12:55:57.264Z,15.08
2019-02-19T12:58:26.188Z,18.85
2019-02-19T13:00:55.413Z,19.05
2019-02-19T13:03:24.358Z,16.95
2019-02-19T13:05:53.643Z,16.55
2019-02-19T13:08:22.587Z,19.98
2019-02-19T13:10:51.537Z,16.20
2019-02-19T13:13:20.386Z,16.17
2019-02-19T13:15:49.265Z,16.48
2019-02-19T13:18:18.184Z,19.07
2019-02-19T13:20:47.128Z,19.80
2019-02-19T13:23:15.989Z,18.05
2019-02-19T13:25:44.821Z,18.87
2019-02-19T13:28:13.681Z,19.67
2019-02-19T13:30:42.604Z,19.45
2019-02-19T13:33:11.761Z,17.77
2019-02-19T13:35:40.652Z,20.50
2019-02-19T13:38:09.592Z,18.82
2019-02-19T13:40:38.628Z,19.15
2019-02-19T13:43:07.511Z,17.95
2019-02-19T13:45:36.633Z,16.97
2019-02-19T13:48:06.238Z,19.32
2019-02-19T13:50:35.292Z,18.98
2019-02-19T13:53:18.374Z,20.92
2019-02-19T13:55:50.016Z,17.57
2019-02-19T13:58:19.060Z,16.32
2019-02-19T14:00:49.184Z,20.88
2019-02-19T14:03:18.156Z,19.63
2019-02-19T14:05:47.090Z,18.70
2019-02-19T14:08:16.015Z,18.67
2019-02-19T14:10:44.964Z,22.30
2019-02-19T14:13:13.995Z,18.25
2019-02-19T14:15:49.860Z,19.95
2019-02-19T14:18:24.120Z,17.60
2019-02-19T14:21:10.696Z,18.90
2019-02-19T14:24:05.007Z,16.37
2019-02-19T14:27:08.453Z,18.57
2019-02-19T14:29:55.089Z,17.07
2019-02-19T14:32:48.975Z,20.27
2019-02-19T14:35:37.784Z,17.57
2019-02-19T14:38:34.631Z,19.17
2019-02-19T14:41:22.635Z,19.42
2019-02-19T14:44:09.494Z,19.48
2019-02-19T14:46:56.568Z,20.02
2019-02-19T14:49:47.438Z,22.50
2019-02-19T14:52:33.164Z,25.02
2019-02-19T14:55:13.185Z,19.62
2019-02-19T14:57:53.507Z,20.92
2019-02-19T15:00:41.548Z,19.50
2019-02-19T15:03:22.956Z,20.92
2019-02-19T15:06:07.929Z,29.12
2019-02-19T15:08:50.005Z,20.30
2019-02-19T15:11:45.885Z,21.82
2019-02-19T15:14:24.344Z,19.42
2019-02-19T15:17:08.883Z,22.17
2019-02-19T15:20:01.849Z,20.35
2019-02-19T15:22:47.109Z,23.87
2019-02-19T15:25:32.968Z,20.10
2019-02-19T15:28:19.648Z,21.20
2019-02-19T15:31:13.879Z,22.62
2019-02-19T15:34:06.548Z,21.20
2019-02-19T15:36:57.805Z,22.63
2019-02-19T15:39:46.653Z,22.22
2019-02-19T15:42:35.572Z,21.50
2019-02-19T15:45:22.497Z,25.27
2019-02-19T15:48:01.074Z,25.27
2019-02-19T15:50:47.913Z,23.05
2019-02-19T15:53:40.347Z,23.17
2019-02-19T15:56:28.301Z,25.05
2019-02-19T15:59:16.272Z,22.30
2019-02-19T16:01:52.193Z,22.93
2019-02-19T16:04:38.950Z,21.97
2019-02-19T16:07:18.073Z,21.80
2019-02-19T16:10:06.160Z,24.20
2019-02-19T16:13:03.149Z,25.70
2019-02-19T16:15:51.159Z,22.35
2019-02-19T16:18:45.387Z,24.20
2019-02-19T16:21:33.391Z,22.77
2019-02-19T16:24:13.558Z,24.80
2019-02-19T16:26:57.389Z,35.78
2019-02-19T16:29:42.278Z,20.97
2019-02-19T16:32:39.248Z,19.33
2019-02-19T16:35:26.837Z,18.92
2019-02-19T16:38:09.923Z,19.10
2019-02-19T16:40:46.333Z,17.57
2019-02-19T16:43:34.665Z,21.20
2019-02-19T16:46:17.093Z,22.13
2019-02-19T16:48:59.344Z,17.87
2019-02-19T16:51:37.537Z,19.02
2019-02-19T16:54:24.488Z,19.10
2019-02-19T16:57:15.013Z,20.65
2019-02-19T16:59:55.330Z,20.00
2019-02-19T17:02:49.492Z,19.32
2019-02-19T17:05:29.868Z,19.73
2019-02-19T17:08:20.865Z,21.62
2019-02-19T17:11:14.924Z,22.45
2019-02-19T17:13:58.580Z,24.43
2019-02-19T17:16:45.432Z,19.20
2019-02-19T17:19:34.028Z,18.30
2019-02-19T17:22:22.144Z,20.37
2019-02-19T17:25:13.126Z,20.72
2019-02-19T17:28:06.863Z,19.17
2019-02-19T17:30:50.954Z,18.92
2019-02-19T17:33:35.177Z,19.30
2019-02-19T17:36:22.136Z,19.80
2019-02-19T17:39:13.124Z,20.95
2019-02-19T17:41:59.713Z,21.52
2019-02-19T17:44:46.746Z,21.47
2019-02-19T17:47:42.037Z,21.40
2019-02-19T17:50:38.207Z,19.80
2019-02-19T17:53:19.013Z,20.00
2019-02-19T17:56:22.326Z,21.50
2019-02-19T17:59:13.040Z,21.35
2019-02-19T18:01:54.214Z,20.20
2019-02-19T18:05:00.350Z,22.73
2019-02-19T18:07:48.352Z,22.37
2019-02-19T18:10:31.994Z,22.95
2019-02-19T18:13:25.002Z,24.05
2019-02-19T18:16:03.850Z,24.90
2019-02-19T18:18:49.251Z,23.42
2019-02-19T18:21:19.222Z,22.17
2019-02-19T18:23:48.245Z,25.32
2019-02-19T18:26:17.100Z,21.97
2019-02-19T18:28:46.009Z,21.27
2019-02-19T18:31:14.869Z,21.75
2019-02-19T18:33:43.822Z,20.82
2019-02-19T18:36:13.762Z,21.65
2019-02-19T18:38:42.753Z,20.88
2019-02-19T18:41:11.936Z,25.62
2019-02-19T18:43:40.908Z,24.20
2019-02-19T18:46:09.880Z,21.82
2019-02-19T18:48:38.879Z,24.02
2019-02-19T18:51:07.877Z,20.75
2019-02-19T18:53:36.807Z,22.50
2019-02-19T18:56:06.113Z,20.23
2019-02-19T18:58:35.080Z,22.42
2019-02-19T19:01:04.026Z,22.02
2019-02-19T19:03:33.348Z,21.23
2019-02-19T19:06:02.224Z,21.10
2019-02-19T19:08:31.112Z,21.17
2019-02-19T19:11:00.081Z,25.50
2019-02-19T19:13:29.128Z,24.92
2019-02-19T19:15:58.086Z,27.25
2019-02-19T19:18:26.937Z,22.90
2019-02-19T19:20:55.898Z,20.90
2019-02-19T19:23:24.825Z,20.88
2019-02-19T19:25:53.865Z,24.07
2019-02-19T19:28:22.716Z,22.73
2019-02-19T19:30:51.636Z,21.30
2019-02-19T19:33:20.580Z,24.43
2019-02-19T19:35:49.448Z,22.52
2019-02-19T19:38:18.424Z,24.00
2019-02-19T19:40:47.342Z,22.70
2019-02-19T19:43:16.193Z,19.82
2019-02-19T19:45:45.237Z,18.70
2019-02-19T19:48:14.094Z,20.27
2019-02-19T19:50:43.423Z,21.27
2019-02-19T19:53:12.312Z,20.82
2019-02-19T19:55:41.585Z,19.07
2019-02-19T19:58:10.535Z,20.37
2019-02-19T20:00:39.560Z,20.52
2019-02-19T20:03:08.474Z,19.30
2019-02-19T20:05:37.373Z,18.50
2019-02-19T20:08:06.417Z,20.43
2019-02-19T20:10:35.392Z,19.40
2019-02-19T20:13:04.337Z,20.60
2019-02-19T20:15:33.352Z,20.00
2019-02-19T20:18:02.251Z,21.40
2019-02-19T20:20:31.240Z,20.85
2019-02-19T20:23:00.142Z,20.75
2019-02-19T20:25:29.061Z,21.48
2019-02-19T20:27:58.060Z,21.87
2019-02-19T20:30:27.131Z,20.17
2019-02-19T20:32:56.108Z,19.50
2019-02-19T20:35:25.040Z,21.23
2019-02-19T20:37:54.339Z,19.57
2019-02-19T20:40:25.027Z,20.15
2019-02-19T20:42:55.230Z,20.43
2019-02-19T20:45:27.521Z,20.17
2019-02-19T20:47:56.416Z,19.27
2019-02-19T20:50:25.401Z,20.90
2019-02-19T20:52:55.615Z,20.65
2019-02-19T20:55:24.657Z,20.57
2019-02-19T20:57:53.597Z,21.50
2019-02-19T21:00:22.519Z,23.02
2019-02-19T21:02:51.440Z,21.93
2019-02-19T21:05:20.482Z,21.17
2019-02-19T21:07:49.461Z,22.32
2019-02-19T21:10:18.646Z,20.20
2019-02-19T21:12:47.553Z,22.82
2019-02-19T21:15:16.547Z,22.87
2019-02-19T21:17:45.460Z,23.80
2019-02-19T21:20:14.467Z,21.95
2019-02-19T21:22:43.432Z,24.00
2019-02-19T21:25:12.502Z,24.37
2019-02-19T21:27:41.622Z,25.08
2019-02-19T21:30:11.181Z,25.37
2019-02-19T21:32:40.228Z,23.67
2019-02-19T21:35:09.436Z,25.62
2019-02-19T21:37:38.270Z,23.40
2019-02-19T21:40:07.812Z,25.30
2019-02-19T21:42:36.773Z,24.52
2019-02-19T21:45:07.868Z,26.20
2019-02-19T21:47:36.700Z,23.73
2019-02-19T21:50:06.361Z,25.60
2019-02-19T21:52:35.759Z,24.25
2019-02-19T21:55:05.883Z,25.80
2019-02-19T21:57:34.891Z,27.42
2019-02-19T22:00:04.127Z,25.08
2019-02-19T22:02:33.044Z,28.73
2019-02-19T22:05:02.025Z,28.38
2019-02-19T22:07:33.317Z,27.35
2019-02-19T22:10:02.332Z,28.47
2019-02-19T22:12:31.552Z,28.98
2019-02-19T22:15:00.546Z,28.45
2019-02-19T22:17:29.489Z,28.02
2019-02-19T22:20:03.026Z,28.83
2019-02-19T22:22:31.556Z,30.65
2019-02-19T22:25:00.782Z,29.87
2019-02-19T22:27:29.755Z,28.35
2019-02-19T22:29:58.609Z,27.42
2019-02-19T22:32:27.596Z,27.10
2019-02-19T22:34:56.541Z,29.25
2019-02-19T22:37:25.467Z,29.75
2019-02-19T22:39:54.762Z,30.30
2019-02-19T22:42:23.652Z,31.12
2019-02-19T22:44:52.671Z,30.40
2019-02-19T22:47:21.972Z,31.33
2019-02-19T22:49:50.853Z,30.23
2019-02-19T22:52:19.704Z,32.10
2019-02-19T22:54:57.457Z,29.80
2019-02-19T22:57:26.398Z,32.35
2019-02-19T22:59:55.232Z,28.65
2019-02-19T23:02:29.388Z,29.23
2019-02-19T23:04:58.396Z,27.90
2019-02-19T23:07:27.549Z,31.37
2019-02-19T23:09:56.592Z,28.38
2019-02-19T23:12:25.900Z,27.25
2019-02-19T23:14:54.760Z,28.85
2019-02-19T23:17:23.964Z,26.65
2019-02-19T23:19:53.060Z,29.90
2019-02-19T23:22:22.142Z,27.07
2019-02-19T23:24:51.163Z,26.65
2019-02-19T23:27:20.079Z,26.73
2019-02-19T23:29:49.088Z,28.25
2019-02-19T23:32:18.135Z,29.67
2019-02-19T23:34:48.912Z,27.32
2019-02-19T23:37:20.501Z,29.10
2019-02-19T23:39:49.532Z,27.10
2019-02-19T23:42:18.528Z,27.37
2019-02-19T23:44:47.464Z,30.05
2019-02-19T23:47:16.482Z,27.67
2019-02-19T23:49:45.411Z,24.50
2019-02-19T23:52:14.527Z,26.63
2019-02-19T23:54:43.557Z,26.42
2019-02-19T23:57:12.690Z,25.23
2019-02-19T23:59:42.212Z,24.87
